Terminal Aerodrome Forecast
Issued by NWS Twin Cities, MN

Home | Current Version | Previous Version | Graphics & Text | Print | Product List | Glossary On
Versions: 1 2 3 4 5 6 7 8 9 10 11 12 13 14 15 16 17 18 19 20 21 22 23 24
000
FTUS43 KMPX 232300
TAFMSP
TAF
KMSP 232334Z 2400/2506 35011KT P6SM -SNDZ OVC013
     FM240600 34010KT P6SM OVC009
     FM241800 32008KT P6SM OVC014=

USA.gov is the U.S. government's official web portal to all federal, state and local government web resources and services.